KHSB

Harrisburg-Raleigh Airport

Harrisburg, Illinois, USA
METAR KHSB 250055Z AUTO 16003KT 10SM CLR 26/18 A3004 RMK AO2 T02600184
Observed Flight Rules
May-25 @ 00:55 UTC (6 minutes ago) Visual Flight Rules
Wind Visibility Clouds
160° at 3 knots 10 miles
  • Clear skies
Temperatures Readings
Current 26°C / 79°F
Dewpoint 18°C / 64°F
Humidity 61%
Altimeter 30.04" Hg
Pressure 1017 hPa
Elevation 121
METAR KHSB 250055Z AUTO 16003KT 10SM CLR 26/18 A3004 RMK AO2 T02600184
Observed Flight Rules
May-25 @ 00:55 UTC
(6 minutes ago)
VFR
Wind Visibility
160° at 3 knots 10 miles
Clouds
  • Clear skies
Temperature Dewpoint
26°C / 79°F 18°C / 64°F
Humidity Altimeter Pressure
61% 30.04" Hg 1017 hPa